All
Camden Airport (Camden, New South Wales) CDU Weather
|
Camden, New South Wales (CDU / YSCN)
Clear skies
Calm winds |
|
10 °C |
CDU Terminal Area Forecast
| Here is the undecoded forecast: 2026/09/04 11:29 YSCN 041129Z 0412/0500 VRB03KT CAVOK BECMG 0423/0500 35014KT CAVOK RMK FM041900 MOD TURB BLW 5000FT TL042200 FM042200 SEV TURB BLW 5000FT T 14 11 09 09 Q 1019 1017 1015 1014 |
Recent CDU METAR history
| Date | Time (AEST) | Flight Rules | Wind Dir. | Speed | Type | Height AGL (ft) | Visibility | Temp (°C) | Temp (°F) | Dew Point (°C) | Dew Point (°F) | Rel. Humid. | Pressure | Density Altitude | Remarks |
|---|---|---|---|---|---|---|---|---|---|---|---|---|---|---|---|
| 05-Sep | 01:00 | VFR | 240° | 3 kt | 10000 meters | 10° | 50° | 8° | 46° | 87% | 1017 mb | -482 ft | |||
| 05-Sep | 00:00 | VFR | 340° | 4 kt | 10000 meters | 11° | 51° | 8° | 46° | 82% | 1018 mb | -392 ft | |||
| 04-Sep | 23:00 | VFR | 340° | 3 kt | 10000 meters | 12° | 53° | 10° | 50° | 88% | 1018 mb | -272 ft | |||
| 04-Sep | 22:00 | VFR | Calm | 10000 meters | 15° | 59° | 8° | 46° | 63% | 1019 mb | 59 ft | ||||
| 04-Sep | 21:00 | VFR | 160° | 2 kt | 10000 meters | 15° | 59° | 8° | 46° | 63% | 1019 mb | 59 ft | |||
| 04-Sep | 20:00 | VFR | 150° | 3 kt | 10000 meters | 16° | 60° | 8° | 46° | 59% | 1018 mb | 208 ft | |||
| 04-Sep | 19:00 | VFR | 200° | 3 kt | 10000 meters | 17° | 62° | 7° | 44° | 52% | 1017 mb | 358 ft | |||
| 04-Sep | 18:00 | VFR | Calm | 10000 meters | 19° | 66° | 6° | 42° | 43% | 1017 mb | 598 ft | ||||
| 04-Sep | 17:00 | VFR | 10° | 7 kt | 10000 meters | 22° | 71° | 6° | 42° | 35% | 1016 mb | 988 ft | |||
| 04-Sep | 16:00 | VFR | 10° | 7 kt | 10000 meters | 23° | 73° | 7° | 44° | 36% | 1016 mb | 1,108 ft | |||
| 04-Sep | 15:00 | VFR | 110° | 3 kt | 10000 meters | 24° | 75° | 6° | 42° | 31% | 1016 mb | 1,228 ft | |||
| 04-Sep | 14:00 | VFR | 170° | 5 kt | 10000 meters | 23° | 73° | 6° | 42° | 33% | 1017 mb | 1,078 ft | |||
| 04-Sep | 13:00 | VFR | 280° | 6 kt | 10000 meters | 22° | 71° | 5° | 41° | 33% | 1018 mb | 928 ft | |||
| 04-Sep | 12:00 | VFR | 290° | 9 kt | 10000 meters | 22° | 71° | 5° | 41° | 33% | 1019 mb | 899 ft | |||
| 04-Sep | 11:00 | VFR | 230° | 6 kt | 10000 meters | 20° | 68° | 5° | 41° | 37% | 1020 mb | 629 ft | |||
| 04-Sep | 10:00 | VFR | 250° | 9 kt | 10000 meters | 19° | 66° | 6° | 42° | 43% | 1021 mb | 480 ft | |||
| 04-Sep | 09:00 | VFR | 240° | 6 kt | 10000 meters | 18° | 64° | 7° | 44° | 49% | 1021 mb | 360 ft | |||
| 04-Sep | 08:00 | VFR | 200° | 3 kt | 10000 meters | 13° | 55° | 8° | 46° | 72% | 1022 mb | -270 ft | |||
| 04-Sep | 07:00 | VFR | Calm | 10000 meters | 8° | 46° | 7° | 44° | 93% | 1021 mb | -840 ft | ||||
| 04-Sep | 06:00 | VFR | Calm | 10000 meters | 7° | 44° | 5° | 41° | 87% | 1021 mb | -960 ft | ||||
| 04-Sep | 05:00 | VFR | 360° | 3 kt | 10000 meters | 8° | 46° | 6° | 42° | 87% | 1020 mb | -811 ft | |||
| 04-Sep | 04:00 | VFR | Calm | 10000 meters | 8° | 46° | 6° | 42° | 87% | 1019 mb | -781 ft | ||||
| 04-Sep | 03:00 | VFR | 20° | 1 kt | 10000 meters | 10° | 50° | 5° | 41° | 71% | 1019 mb | -541 ft | |||
| 04-Sep | 02:00 | VFR | 150° | 3 kt | 10000 meters | 12° | 53° | 5° | 41° | 62% | 1019 mb | -301 ft |
Login
| Your browser is unsupported. upgrade your browser |
